Government of Jersey

Home Log in

Channel Islands Terminal Aerodrome Forecasts (TAFs)

Jersey Airport - EGJJ

EGJJ 111054Z 1112/1121 36010KT 9999 FEW034=

Guernsey Airport - EGJB

EGJB 111054Z 1112/1121 02011KT 9999 FEW034 BECMG 1116/1118 32007KT=

Alderney Airport - EGJA

EGJA 111054Z 1112/1121 02010KT 9999 FEW032 BECMG 1115/1117 31007KT=